createdAt,value
2019-05-16T00:00:10.597Z,87.25
2019-05-16T00:02:38.997Z,87.23
2019-05-16T00:05:08.482Z,87.56
2019-05-16T00:07:39.063Z,87.97
2019-05-16T00:10:08.431Z,87.27
2019-05-16T00:12:39.838Z,87.70
2019-05-16T00:15:08.974Z,87.79
2019-05-16T00:17:38.535Z,87.84
2019-05-16T00:20:09.212Z,87.77
2019-05-16T00:22:39.431Z,88.14
2019-05-16T00:25:09.026Z,87.82
2019-05-16T00:27:38.588Z,88.36
2019-05-16T00:30:08.863Z,88.99
2019-05-16T00:32:39.091Z,88.38
2019-05-16T00:35:09.424Z,88.56
2019-05-16T00:37:39.178Z,87.84
2019-05-16T00:40:08.347Z,87.55
2019-05-16T00:42:38.939Z,88.75
2019-05-16T00:45:09.196Z,88.62
2019-05-16T00:47:39.012Z,88.78
2019-05-16T00:50:09.024Z,89.37
2019-05-16T00:52:39.317Z,89.45
2019-05-16T00:55:08.480Z,89.28
2019-05-16T00:57:38.962Z,89.05
2019-05-16T01:00:11.047Z,89.02
2019-05-16T01:02:39.831Z,89.40
2019-05-16T01:05:08.895Z,89.55
2019-05-16T01:07:39.136Z,89.94
2019-05-16T01:10:08.965Z,89.13
2019-05-16T01:12:39.123Z,89.43
2019-05-16T01:15:09.669Z,89.35
2019-05-16T01:17:39.078Z,89.31
2019-05-16T01:20:08.688Z,89.64
2019-05-16T01:22:38.534Z,89.96
2019-05-16T01:25:09.342Z,90.49
2019-05-16T01:27:38.749Z,90.27
2019-05-16T01:30:09.129Z,90.33
2019-05-16T01:32:39.085Z,90.68
2019-05-16T01:35:08.450Z,90.67
2019-05-16T01:37:38.398Z,90.72
2019-05-16T01:40:08.506Z,91.09
2019-05-16T01:42:38.522Z,91.09
2019-05-16T01:45:08.468Z,91.37
2019-05-16T01:47:39.290Z,90.58
2019-05-16T01:50:08.807Z,90.21
2019-05-16T01:52:38.260Z,90.79
2019-05-16T01:55:08.198Z,90.64
2019-05-16T01:57:38.879Z,90.84
2019-05-16T02:00:08.357Z,90.79
2019-05-16T02:02:38.470Z,91.94
2019-05-16T02:05:08.612Z,91.49
2019-05-16T02:07:38.739Z,90.24
2019-05-16T02:10:09.296Z,90.08
2019-05-16T02:12:38.591Z,90.67
2019-05-16T02:15:08.201Z,90.65
2019-05-16T02:17:38.517Z,90.14
2019-05-16T02:20:08.919Z,90.48
2019-05-16T02:22:38.910Z,91.04
2019-05-16T02:25:08.681Z,90.83
2019-05-16T02:27:39.695Z,91.53
2019-05-16T02:30:12.027Z,91.22
2019-05-16T02:32:41.385Z,92.03
2019-05-16T02:35:11.777Z,92.46
2019-05-16T02:37:42.236Z,92.04
2019-05-16T02:40:11.955Z,92.04
2019-05-16T02:42:42.010Z,91.96
2019-05-16T02:45:11.978Z,91.93
2019-05-16T02:47:42.410Z,91.81
2019-05-16T02:50:12.232Z,91.51
2019-05-16T02:52:41.777Z,91.30
2019-05-16T02:55:11.875Z,91.40
2019-05-16T02:57:41.724Z,91.24
2019-05-16T03:00:12.508Z,91.70
2019-05-16T03:02:41.908Z,92.02
2019-05-16T03:05:12.230Z,91.77
2019-05-16T03:07:47.291Z,91.40
2019-05-16T03:10:15.181Z,91.99
2019-05-16T03:12:43.899Z,91.98
2019-05-16T03:15:13.046Z,92.32
2019-05-16T03:17:44.255Z,92.29
2019-05-16T03:20:13.493Z,92.72
2019-05-16T03:22:42.909Z,92.64
2019-05-16T03:25:11.970Z,92.93
2019-05-16T03:27:41.456Z,93.53
2019-05-16T03:30:15.810Z,93.14
2019-05-16T03:32:45.318Z,93.00
2019-05-16T03:35:15.259Z,93.60
2019-05-16T03:37:55.049Z,93.64
2019-05-16T03:40:15.238Z,93.38
2019-05-16T03:42:43.643Z,92.95
2019-05-16T03:45:12.609Z,92.85
2019-05-16T03:47:42.645Z,93.01
2019-05-16T03:50:11.965Z,93.26
2019-05-16T03:52:43.526Z,93.46
2019-05-16T03:55:11.221Z,93.30
2019-05-16T03:57:41.458Z,93.69
2019-05-16T04:00:12.057Z,93.59
2019-05-16T04:02:44.783Z,93.71
2019-05-16T04:05:11.622Z,93.79
2019-05-16T04:07:41.799Z,93.98
2019-05-16T04:10:11.144Z,93.81
2019-05-16T04:12:41.837Z,93.98
2019-05-16T04:15:11.919Z,93.61
2019-05-16T04:17:41.469Z,93.93
2019-05-16T04:20:11.748Z,93.75
2019-05-16T04:22:41.077Z,94.12
2019-05-16T04:25:11.274Z,94.24
2019-05-16T04:27:41.653Z,94.52
2019-05-16T04:30:11.596Z,94.64
2019-05-16T04:32:42.000Z,94.67
2019-05-16T04:35:11.674Z,94.71
2019-05-16T04:37:42.175Z,94.78
2019-05-16T04:40:11.908Z,94.81
2019-05-16T04:42:41.894Z,94.67
2019-05-16T04:45:12.203Z,94.52
2019-05-16T04:47:41.600Z,94.31
2019-05-16T04:50:11.859Z,94.16
2019-05-16T04:52:41.874Z,93.98
2019-05-16T04:55:12.232Z,93.89
2019-05-16T04:57:42.106Z,93.55
2019-05-16T05:00:11.823Z,93.55
2019-05-16T05:02:41.746Z,93.37
2019-05-16T05:05:12.602Z,93.29
2019-05-16T05:07:41.449Z,93.18
2019-05-16T05:10:11.571Z,92.64
2019-05-16T05:12:40.913Z,92.77
2019-05-16T05:15:11.418Z,92.00
2019-05-16T05:17:41.332Z,92.00
2019-05-16T05:20:10.907Z,91.91
2019-05-16T05:22:39.910Z,91.72
2019-05-16T05:25:10.895Z,91.16
2019-05-16T05:27:41.270Z,90.73
2019-05-16T05:30:10.917Z,90.67
2019-05-16T05:32:41.276Z,90.20
2019-05-16T05:35:10.906Z,90.29
2019-05-16T05:37:41.069Z,89.38
2019-05-16T05:40:11.018Z,88.97
2019-05-16T05:42:40.379Z,88.47
2019-05-16T05:45:11.205Z,88.01
2019-05-16T05:47:40.193Z,87.82
2019-05-16T05:50:11.194Z,88.04
2019-05-16T05:52:41.119Z,87.74
2019-05-16T05:55:10.690Z,86.59
2019-05-16T05:57:40.273Z,86.39
2019-05-16T06:00:10.078Z,86.45
2019-05-16T06:02:40.346Z,86.25
2019-05-16T06:05:10.683Z,86.48
2019-05-16T06:07:40.536Z,85.75
2019-05-16T06:10:10.600Z,85.37
2019-05-16T06:12:40.911Z,85.44
2019-05-16T06:15:12.628Z,85.33
2019-05-16T06:17:40.419Z,84.56
2019-05-16T06:20:14.409Z,84.82
2019-05-16T06:22:40.306Z,83.67
2019-05-16T06:25:13.442Z,83.06
2019-05-16T06:27:40.633Z,83.87
2019-05-16T06:30:11.489Z,83.13
2019-05-16T06:32:40.025Z,83.03
2019-05-16T06:35:09.734Z,82.16
2019-05-16T06:37:40.642Z,83.01
2019-05-16T06:40:10.973Z,80.59
2019-05-16T06:42:40.226Z,79.84
2019-05-16T06:45:10.369Z,80.02
2019-05-16T06:47:39.628Z,79.67
2019-05-16T06:50:10.990Z,78.77
2019-05-16T06:52:40.845Z,77.81
2019-05-16T06:55:10.067Z,78.61
2019-05-16T06:57:40.860Z,78.74
2019-05-16T07:00:10.873Z,77.39
2019-05-16T07:02:40.864Z,78.63
2019-05-16T07:05:10.234Z,78.51
2019-05-16T07:07:40.427Z,79.16
2019-05-16T07:10:09.877Z,79.28
2019-05-16T07:12:41.095Z,78.85
2019-05-16T07:15:12.285Z,78.67
2019-05-16T07:17:40.538Z,77.08
2019-05-16T07:20:10.553Z,78.95
2019-05-16T07:22:40.658Z,78.58
2019-05-16T07:25:11.072Z,78.38
2019-05-16T07:27:40.099Z,77.37
2019-05-16T07:30:10.802Z,77.25
2019-05-16T07:32:40.510Z,77.75
2019-05-16T07:35:10.393Z,77.01
2019-05-16T07:37:39.958Z,77.86
2019-05-16T07:40:19.023Z,77.29
2019-05-16T07:42:40.422Z,76.96
2019-05-16T07:45:10.653Z,75.83
2019-05-16T07:47:40.297Z,75.10
2019-05-16T07:50:10.476Z,75.56
2019-05-16T07:52:40.228Z,74.67
2019-05-16T07:55:10.772Z,74.87
2019-05-16T07:57:40.044Z,75.83
2019-05-16T08:00:09.991Z,74.78
2019-05-16T08:02:40.268Z,74.78
2019-05-16T08:05:10.279Z,75.57
2019-05-16T08:07:40.718Z,75.04
2019-05-16T08:10:10.920Z,75.22
2019-05-16T08:12:40.811Z,74.77
2019-05-16T08:15:10.247Z,74.37
2019-05-16T08:17:41.364Z,73.74
2019-05-16T08:20:10.849Z,73.84
2019-05-16T08:22:41.494Z,72.79
2019-05-16T08:25:10.798Z,73.36
2019-05-16T08:27:41.274Z,73.34
2019-05-16T08:35:11.441Z,72.62
2019-05-16T08:37:46.091Z,73.77
2019-05-16T08:40:11.438Z,73.80
2019-05-16T08:42:41.575Z,72.83
2019-05-16T08:47:42.552Z,71.82
2019-05-16T08:50:14.663Z,71.81
2019-05-16T08:52:43.859Z,70.98
2019-05-16T08:55:13.651Z,69.05
2019-05-16T08:57:42.158Z,70.99
2019-05-16T09:00:14.709Z,68.91
2019-05-16T09:02:42.347Z,69.48
2019-05-16T09:05:13.669Z,67.04
2019-05-16T09:07:41.384Z,66.28
2019-05-16T09:10:21.222Z,72.51
2019-05-16T09:10:34.820Z,73.14
2019-05-16T09:10:40.735Z,73.72
2019-05-16T09:10:42.922Z,68.67
2019-05-16T09:12:40.644Z,68.54
2019-05-16T09:15:09.290Z,69.06
2019-05-16T09:17:38.543Z,69.16
2019-05-16T09:20:08.938Z,68.17
2019-05-16T09:22:37.987Z,67.21
2019-05-16T09:25:08.142Z,68.26
2019-05-16T09:27:38.088Z,67.82
2019-05-16T09:30:08.700Z,67.83
2019-05-16T09:32:37.291Z,67.96
2019-05-16T09:35:09.677Z,66.54
2019-05-16T09:37:38.365Z,65.48
2019-05-16T09:40:08.302Z,66.22
2019-05-16T09:42:37.399Z,65.83
2019-05-16T09:45:07.484Z,67.55
2019-05-16T09:47:39.085Z,66.34
2019-05-16T09:50:09.290Z,65.29
2019-05-16T09:52:38.345Z,64.61
2019-05-16T09:55:08.035Z,62.00
2019-05-16T09:57:37.657Z,62.79
2019-05-16T10:00:09.342Z,61.88
2019-05-16T10:02:38.235Z,62.63
2019-05-16T10:05:13.261Z,64.44
2019-05-16T10:07:38.851Z,66.27
2019-05-16T10:10:08.458Z,65.29
2019-05-16T10:12:37.235Z,63.91
2019-05-16T10:15:07.651Z,63.24
2019-05-16T10:17:37.026Z,63.42
2019-05-16T10:20:08.134Z,63.42
2019-05-16T10:22:37.417Z,62.25
2019-05-16T10:25:07.389Z,63.70
2019-05-16T10:27:37.440Z,62.08
2019-05-16T10:30:08.470Z,64.67
2019-05-16T10:32:39.733Z,61.88
2019-05-16T10:35:08.853Z,60.62
2019-05-16T10:37:37.630Z,60.57
2019-05-16T10:40:07.586Z,60.47
2019-05-16T10:42:38.109Z,62.11
2019-05-16T10:45:09.058Z,61.15
2019-05-16T10:47:37.604Z,61.80
2019-05-16T10:50:08.202Z,62.36
2019-05-16T10:52:36.952Z,60.44
2019-05-16T10:55:08.356Z,60.21
2019-05-16T10:57:37.956Z,60.33
2019-05-16T11:00:18.107Z,58.47
2019-05-16T11:02:38.387Z,58.92
2019-05-16T11:05:28.730Z,59.04
2019-05-16T11:07:38.099Z,58.32
2019-05-16T11:10:07.941Z,59.04
2019-05-16T11:12:47.779Z,60.11
2019-05-16T11:15:11.404Z,59.48
2019-05-16T11:17:39.545Z,59.31
2019-05-16T11:20:08.342Z,57.07
2019-05-16T11:22:37.238Z,56.12
2019-05-16T11:25:21.388Z,58.64
2019-05-16T11:27:37.778Z,58.64
2019-05-16T11:30:07.725Z,59.33
2019-05-16T11:32:37.499Z,59.49
2019-05-16T11:35:09.371Z,59.18
2019-05-16T11:37:38.093Z,60.26
2019-05-16T11:40:08.412Z,56.45
2019-05-16T11:42:38.048Z,58.00
2019-05-16T11:45:09.692Z,57.71
2019-05-16T11:47:38.550Z,56.32
2019-05-16T11:50:09.477Z,57.17
2019-05-16T11:52:40.571Z,56.82
2019-05-16T11:55:09.268Z,57.05
2019-05-16T11:57:38.154Z,56.72
2019-05-16T12:00:12.587Z,58.44
2019-05-16T12:02:42.865Z,57.72
2019-05-16T12:05:11.765Z,57.05
2019-05-16T12:07:44.206Z,57.48
2019-05-16T12:10:11.701Z,58.12
2019-05-16T12:12:40.404Z,56.99
2019-05-16T12:15:09.774Z,56.53
2019-05-16T12:17:38.699Z,57.87
2019-05-16T12:20:07.976Z,57.25
2019-05-16T12:22:37.710Z,57.40
2019-05-16T12:25:08.251Z,57.13
2019-05-16T12:27:42.237Z,57.80
2019-05-16T12:30:13.758Z,58.16
2019-05-16T12:32:38.907Z,57.96
2019-05-16T12:35:07.599Z,58.78
2019-05-16T12:37:37.191Z,57.28
2019-05-16T12:40:07.821Z,55.98
2019-05-16T12:42:36.676Z,57.20
2019-05-16T12:45:09.011Z,56.86
2019-05-16T12:47:37.803Z,56.66
2019-05-16T12:50:13.798Z,55.91
2019-05-16T12:52:42.285Z,55.35
2019-05-16T12:55:11.275Z,55.29
2019-05-16T12:57:40.010Z,57.79
2019-05-16T13:00:15.404Z,55.53
2019-05-16T13:02:40.970Z,55.31
2019-05-16T13:05:09.707Z,55.24
2019-05-16T13:07:38.181Z,54.98
2019-05-16T13:10:08.346Z,56.23
2019-05-16T13:12:38.023Z,55.47
2019-05-16T13:15:07.427Z,57.16
2019-05-16T13:17:37.172Z,57.28
2019-05-16T13:20:07.726Z,55.66
2019-05-16T13:22:38.373Z,54.42
2019-05-16T13:25:08.140Z,54.23
2019-05-16T13:27:37.267Z,54.88
2019-05-16T13:30:11.071Z,53.42
2019-05-16T13:32:39.729Z,53.98
2019-05-16T13:35:08.306Z,56.00
2019-05-16T13:37:36.707Z,56.63
2019-05-16T13:40:08.874Z,55.76
2019-05-16T13:42:37.299Z,57.31
2019-05-16T13:45:10.241Z,55.90
2019-05-16T13:47:39.037Z,57.68
2019-05-16T13:50:12.126Z,56.14
2019-05-16T13:52:38.474Z,56.84
2019-05-16T13:55:08.173Z,57.63
2019-05-16T13:57:37.362Z,56.18
2019-05-16T14:00:10.171Z,57.36
2019-05-16T14:02:39.154Z,56.69
2019-05-16T14:05:08.607Z,56.23
2019-05-16T14:07:37.726Z,56.27
2019-05-16T14:10:09.569Z,56.69
2019-05-16T14:12:38.480Z,57.12
2019-05-16T14:15:11.116Z,57.76
2019-05-16T14:17:39.515Z,57.36
2019-05-16T14:20:14.455Z,57.37
2019-05-16T14:22:39.996Z,57.52
2019-05-16T14:25:08.934Z,58.36
2019-05-16T14:27:38.136Z,57.63
2019-05-16T14:30:09.061Z,57.44
2019-05-16T14:32:41.920Z,60.06
2019-05-16T14:35:09.155Z,59.46
2019-05-16T14:37:38.292Z,58.74
2019-05-16T14:40:08.459Z,58.37
2019-05-16T14:42:38.516Z,58.89
2019-05-16T14:45:12.744Z,59.82
2019-05-16T14:47:40.276Z,59.61
2019-05-16T14:50:13.929Z,59.71
2019-05-16T14:52:42.173Z,61.23
2019-05-16T14:55:10.951Z,61.15
2019-05-16T14:57:39.426Z,60.66
2019-05-16T15:00:09.554Z,61.36
2019-05-16T15:02:38.754Z,61.26
2019-05-16T15:05:08.185Z,60.79
2019-05-16T15:07:37.591Z,61.13
2019-05-16T15:10:08.097Z,61.22
2019-05-16T15:12:37.614Z,61.02
2019-05-16T15:15:20.217Z,60.14
2019-05-16T15:17:38.460Z,60.65
2019-05-16T15:20:09.790Z,60.68
2019-05-16T15:22:38.722Z,61.35
2019-05-16T15:25:08.365Z,60.68
2019-05-16T15:27:37.293Z,59.92
2019-05-16T15:30:08.721Z,58.83
2019-05-16T15:32:38.568Z,58.66
2019-05-16T15:35:08.052Z,58.50
2019-05-16T15:37:37.423Z,58.30
2019-05-16T15:40:07.669Z,59.04
2019-05-16T15:42:37.323Z,59.67
2019-05-16T15:45:08.088Z,59.41
2019-05-16T15:47:37.741Z,59.46
2019-05-16T15:50:11.155Z,60.25
2019-05-16T15:52:40.028Z,60.92
2019-05-16T15:55:10.403Z,61.52
2019-05-16T15:57:38.894Z,62.67
2019-05-16T16:00:10.711Z,63.68
2019-05-16T16:02:39.561Z,64.36
2019-05-16T16:05:10.013Z,64.16
2019-05-16T16:07:38.446Z,65.42
2019-05-16T16:10:07.998Z,63.99
2019-05-16T16:12:37.720Z,65.42
2019-05-16T16:15:07.745Z,65.59
2019-05-16T16:17:38.175Z,65.91
2019-05-16T16:20:10.342Z,66.76
2019-05-16T16:22:37.928Z,67.23
2019-05-16T16:25:07.465Z,67.70
2019-05-16T16:27:36.183Z,67.38
2019-05-16T16:30:07.074Z,67.05
2019-05-16T16:32:37.952Z,66.58
2019-05-16T16:35:08.112Z,66.98
2019-05-16T16:37:37.741Z,67.40
2019-05-16T16:40:10.990Z,67.68
2019-05-16T16:42:37.719Z,67.68
2019-05-16T16:45:10.083Z,66.94
2019-05-16T16:47:38.879Z,67.38
2019-05-16T16:50:08.424Z,68.06
2019-05-16T16:52:37.930Z,68.01
2019-05-16T16:55:08.038Z,68.42
2019-05-16T16:57:38.341Z,68.72
2019-05-16T17:00:09.011Z,69.02
2019-05-16T17:02:37.772Z,69.03
2019-05-16T17:05:12.548Z,68.87
2019-05-16T17:07:38.554Z,68.83
2019-05-16T17:10:09.074Z,69.20
2019-05-16T17:12:41.336Z,68.92
2019-05-16T17:15:09.364Z,69.66
2019-05-16T17:17:37.889Z,69.97
2019-05-16T17:20:07.992Z,70.42
2019-05-16T17:22:37.766Z,70.43
2019-05-16T17:25:08.539Z,70.70
2019-05-16T17:27:37.629Z,69.70
2019-05-16T17:30:16.965Z,69.57
2019-05-16T17:32:45.445Z,69.49
2019-05-16T17:35:18.766Z,69.47
2019-05-16T17:37:46.785Z,69.66
2019-05-16T17:40:17.569Z,70.03
2019-05-16T17:42:47.552Z,70.42
2019-05-16T17:45:18.098Z,70.34
2019-05-16T17:47:46.934Z,70.79
2019-05-16T17:50:17.213Z,71.20
2019-05-16T17:52:47.695Z,70.74
2019-05-16T17:55:17.525Z,69.56
2019-05-16T17:57:46.281Z,69.63
2019-05-16T18:00:25.184Z,70.32
2019-05-16T18:02:47.022Z,70.12
2019-05-16T18:05:17.016Z,71.40
2019-05-16T18:07:47.387Z,71.45
2019-05-16T18:10:17.001Z,71.53
2019-05-16T18:12:47.735Z,71.80
2019-05-16T18:15:18.625Z,71.80
2019-05-16T18:17:47.035Z,73.90
2019-05-16T18:20:15.878Z,74.01
2019-05-16T18:22:47.009Z,73.47
2019-05-16T18:25:16.387Z,73.28
2019-05-16T18:27:44.898Z,74.10
2019-05-16T18:30:16.450Z,73.47
2019-05-16T18:32:44.282Z,73.35
2019-05-16T18:35:13.497Z,73.42
2019-05-16T18:37:41.889Z,73.72
2019-05-16T18:40:10.944Z,74.20
2019-05-16T18:42:39.349Z,74.26
2019-05-16T18:45:08.520Z,75.05
2019-05-16T18:47:37.824Z,75.29
2019-05-16T18:50:10.297Z,75.54
2019-05-16T18:52:38.703Z,75.91
2019-05-16T18:55:08.689Z,76.78
2019-05-16T18:57:37.977Z,76.53
2019-05-16T19:00:10.915Z,77.07
2019-05-16T19:02:39.086Z,76.89
2019-05-16T19:05:08.487Z,78.00
2019-05-16T19:07:37.164Z,78.62
2019-05-16T19:10:07.381Z,78.33
2019-05-16T19:12:37.275Z,79.09
2019-05-16T19:15:09.866Z,79.47
2019-05-16T19:17:38.435Z,78.95
2019-05-16T19:20:07.790Z,79.20
2019-05-16T19:22:37.191Z,79.83
2019-05-16T19:25:07.207Z,79.87
2019-05-16T19:27:37.089Z,80.28
2019-05-16T19:30:09.478Z,80.18
2019-05-16T19:32:39.626Z,80.49
2019-05-16T19:35:08.831Z,81.00
2019-05-16T19:37:40.427Z,80.60
2019-05-16T19:40:07.898Z,81.08
2019-05-16T19:42:37.080Z,81.42
2019-05-16T19:45:08.518Z,82.23
2019-05-16T19:47:40.944Z,82.08
2019-05-16T19:50:08.910Z,82.92
2019-05-16T19:52:37.661Z,82.18
2019-05-16T19:55:07.729Z,82.55
2019-05-16T19:57:37.390Z,82.43
2019-05-16T20:00:08.592Z,82.68
2019-05-16T20:02:37.488Z,83.70
2019-05-16T20:05:07.529Z,83.72
2019-05-16T20:07:37.251Z,83.81
2019-05-16T20:10:09.509Z,83.92
2019-05-16T20:12:37.763Z,84.02
2019-05-16T20:15:11.652Z,84.19
2019-05-16T20:17:50.957Z,84.08
2019-05-16T20:20:09.256Z,84.17
2019-05-16T20:22:37.698Z,84.36
2019-05-16T20:25:07.424Z,83.83
2019-05-16T20:27:36.847Z,84.54
2019-05-16T20:30:07.125Z,84.61
2019-05-16T20:32:37.171Z,84.53
2019-05-16T20:35:09.287Z,85.06
2019-05-16T20:37:37.704Z,85.54
2019-05-16T20:40:09.223Z,86.07
2019-05-16T20:42:37.187Z,86.46
2019-05-16T20:45:16.896Z,87.08
2019-05-16T20:47:48.347Z,86.73
2019-05-16T20:50:18.580Z,86.80
2019-05-16T20:52:48.675Z,87.88
2019-05-16T20:55:28.188Z,88.08
2019-05-16T20:58:07.734Z,89.20
2019-05-16T21:00:31.008Z,89.07
2019-05-16T21:02:59.692Z,90.17
2019-05-16T21:05:30.257Z,89.32
2019-05-16T21:07:58.761Z,88.81
2019-05-16T21:10:27.531Z,88.53
2019-05-16T21:12:57.430Z,87.97
2019-05-16T21:15:26.393Z,88.22
2019-05-16T21:17:57.253Z,88.17
2019-05-16T21:20:27.034Z,88.54
2019-05-16T21:22:56.444Z,88.28
2019-05-16T21:25:26.384Z,89.28
2019-05-16T21:27:57.104Z,88.44
2019-05-16T21:30:30.459Z,88.86
2019-05-16T21:33:02.006Z,89.66
2019-05-16T21:35:37.379Z,89.43
2019-05-16T21:38:08.728Z,88.90
2019-05-16T21:40:37.885Z,89.37
2019-05-16T21:43:07.517Z,89.18
2019-05-16T21:45:37.168Z,89.25
2019-05-16T21:48:09.926Z,89.97
2019-05-16T21:50:40.863Z,89.92
2019-05-16T21:53:13.454Z,89.73
2019-05-16T21:55:50.717Z,89.76
2019-05-16T21:58:19.306Z,89.98
2019-05-16T22:00:53.863Z,90.17
2019-05-16T22:03:26.973Z,89.60
2019-05-16T22:05:57.579Z,89.56
2019-05-16T22:08:25.935Z,89.27
2019-05-16T22:10:57.727Z,89.33
2019-05-16T22:13:26.457Z,89.57
2019-05-16T22:15:56.908Z,89.67
2019-05-16T22:18:25.440Z,89.28
2019-05-16T22:20:56.895Z,88.83
2019-05-16T22:23:27.751Z,88.76
2019-05-16T22:25:57.073Z,89.49
2019-05-16T22:28:27.445Z,89.58
2019-05-16T22:30:58.569Z,89.44
2019-05-16T22:33:29.802Z,89.54
2019-05-16T22:35:58.442Z,89.77
2019-05-16T22:38:28.866Z,90.08
2019-05-16T22:40:58.987Z,90.12
2019-05-16T22:43:27.596Z,89.90
2019-05-16T22:45:59.288Z,89.92
2019-05-16T22:48:29.462Z,89.58
2019-05-16T22:50:57.950Z,89.30
2019-05-16T22:53:27.284Z,89.17
2019-05-16T22:56:00.849Z,89.25
2019-05-16T22:58:34.279Z,89.82
2019-05-16T23:01:03.634Z,89.50
2019-05-16T23:03:41.202Z,89.26
2019-05-16T23:06:09.771Z,89.36
2019-05-16T23:08:38.421Z,89.96
2019-05-16T23:11:07.458Z,90.41
2019-05-16T23:13:37.900Z,89.96
2019-05-16T23:16:06.874Z,89.98
2019-05-16T23:18:37.446Z,89.83
2019-05-16T23:21:06.504Z,90.57
2019-05-16T23:23:37.996Z,90.34
2019-05-16T23:26:06.649Z,90.52
2019-05-16T23:28:36.832Z,90.76
2019-05-16T23:31:11.499Z,90.50
2019-05-16T23:33:46.986Z,90.17
2019-05-16T23:36:17.481Z,90.45
2019-05-16T23:38:50.701Z,90.48
2019-05-16T23:41:19.344Z,90.84
2019-05-16T23:43:47.973Z,90.29
2019-05-16T23:46:19.563Z,90.27
2019-05-16T23:48:52.832Z,90.42
2019-05-16T23:51:21.392Z,90.59
2019-05-16T23:53:50.003Z,90.55
2019-05-16T23:56:18.455Z,90.69
2019-05-16T23:58:47.692Z,90.63
